sensor_id;sensor_type;location;lat;lon;timestamp;pressure;altitude;pressure_sealevel;temperature;humidity
30730;BME280;17476;48.458;7.928;2023-06-10T00:02:11;99376.72;;;21.92;49.80
30730;BME280;17476;48.458;7.928;2023-06-10T00:04:37;99379.38;;;21.92;49.21
30730;BME280;17476;48.458;7.928;2023-06-10T00:07:06;99382.31;;;21.90;49.16
30730;BME280;17476;48.458;7.928;2023-06-10T00:09:36;99384.66;;;21.87;49.68
30730;BME280;17476;48.458;7.928;2023-06-10T00:12:08;99382.00;;;21.87;49.42
30730;BME280;17476;48.458;7.928;2023-06-10T00:14:38;99380.91;;;21.83;50.15
30730;BME280;17476;48.458;7.928;2023-06-10T00:17:05;99395.59;;;21.63;52.11
30730;BME280;17476;48.458;7.928;2023-06-10T00:19:38;99402.44;;;20.98;54.89
30730;BME280;17476;48.458;7.928;2023-06-10T00:22:07;99401.22;;;20.67;55.73
30730;BME280;17476;48.458;7.928;2023-06-10T00:24:35;99399.53;;;20.61;55.84
30730;BME280;17476;48.458;7.928;2023-06-10T00:27:01;99402.28;;;20.66;55.12
30730;BME280;17476;48.458;7.928;2023-06-10T00:29:26;99395.94;;;20.72;54.21
30730;BME280;17476;48.458;7.928;2023-06-10T00:31:52;99401.09;;;20.79;53.64
30730;BME280;17476;48.458;7.928;2023-06-10T00:34:23;99397.56;;;20.90;53.89
30730;BME280;17476;48.458;7.928;2023-06-10T00:36:49;99396.44;;;20.86;53.88
30730;BME280;17476;48.458;7.928;2023-06-10T00:39:16;99396.91;;;20.83;53.39
30730;BME280;17476;48.458;7.928;2023-06-10T00:41:42;99395.88;;;20.84;53.39
30730;BME280;17476;48.458;7.928;2023-06-10T00:44:11;99391.69;;;20.88;53.10
30730;BME280;17476;48.458;7.928;2023-06-10T00:46:37;99402.88;;;20.90;53.33
30730;BME280;17476;48.458;7.928;2023-06-10T00:49:03;99395.69;;;20.91;53.44
30730;BME280;17476;48.458;7.928;2023-06-10T00:51:29;99397.00;;;20.88;54.06
30730;BME280;17476;48.458;7.928;2023-06-10T00:53:55;99396.63;;;20.80;54.80
30730;BME280;17476;48.458;7.928;2023-06-10T00:56:21;99398.06;;;20.70;55.59
30730;BME280;17476;48.458;7.928;2023-06-10T00:58:48;99391.47;;;20.56;54.93
30730;BME280;17476;48.458;7.928;2023-06-10T01:01:14;99394.94;;;20.57;55.82
30730;BME280;17476;48.458;7.928;2023-06-10T01:03:40;99394.13;;;20.56;54.61
30730;BME280;17476;48.458;7.928;2023-06-10T01:06:54;99397.44;;;20.47;55.63
30730;BME280;17476;48.458;7.928;2023-06-10T01:09:33;99401.13;;;20.45;56.64
30730;BME280;17476;48.458;7.928;2023-06-10T01:12:19;99397.13;;;20.31;56.14
30730;BME280;17476;48.458;7.928;2023-06-10T01:14:46;99404.00;;;20.27;56.40
30730;BME280;17476;48.458;7.928;2023-06-10T01:17:14;99406.91;;;20.26;56.33
30730;BME280;17476;48.458;7.928;2023-06-10T01:19:42;99410.56;;;20.25;57.69
30730;BME280;17476;48.458;7.928;2023-06-10T01:22:09;99408.81;;;20.13;56.75
30730;BME280;17476;48.458;7.928;2023-06-10T01:24:37;99408.69;;;20.08;58.08
30730;BME280;17476;48.458;7.928;2023-06-10T01:27:12;99411.78;;;19.88;60.96
30730;BME280;17476;48.458;7.928;2023-06-10T01:29:45;99413.91;;;19.75;60.77
30730;BME280;17476;48.458;7.928;2023-06-10T01:32:29;99414.06;;;19.56;61.55
30730;BME280;17476;48.458;7.928;2023-06-10T01:34:59;99415.91;;;19.56;60.04
30730;BME280;17476;48.458;7.928;2023-06-10T01:37:27;99424.09;;;19.66;59.60
30730;BME280;17476;48.458;7.928;2023-06-10T01:39:58;99414.47;;;19.77;58.46
30730;BME280;17476;48.458;7.928;2023-06-10T01:42:34;99419.91;;;19.82;58.64
30730;BME280;17476;48.458;7.928;2023-06-10T01:45:01;99427.41;;;19.85;58.60
30730;BME280;17476;48.458;7.928;2023-06-10T01:47:26;99429.56;;;19.88;58.88
30730;BME280;17476;48.458;7.928;2023-06-10T01:49:52;99429.47;;;19.83;58.67
30730;BME280;17476;48.458;7.928;2023-06-10T01:52:18;99436.06;;;19.80;60.14
30730;BME280;17476;48.458;7.928;2023-06-10T01:54:47;99431.72;;;19.62;61.73
30730;BME280;17476;48.458;7.928;2023-06-10T01:57:12;99425.66;;;19.39;61.46
30730;BME280;17476;48.458;7.928;2023-06-10T01:59:38;99432.44;;;19.34;61.62
30730;BME280;17476;48.458;7.928;2023-06-10T02:02:10;99434.53;;;19.32;62.02
30730;BME280;17476;48.458;7.928;2023-06-10T02:04:36;99426.69;;;19.26;61.39
30730;BME280;17476;48.458;7.928;2023-06-10T02:07:02;99436.16;;;19.22;60.86
30730;BME280;17476;48.458;7.928;2023-06-10T02:09:30;99435.78;;;19.30;60.45
30730;BME280;17476;48.458;7.928;2023-06-10T02:11:57;99438.78;;;19.45;61.38
30730;BME280;17476;48.458;7.928;2023-06-10T02:14:23;99443.84;;;19.35;61.82
30730;BME280;17476;48.458;7.928;2023-06-10T02:16:48;99439.97;;;19.14;63.01
30730;BME280;17476;48.458;7.928;2023-06-10T02:19:14;99433.41;;;18.93;64.34
30730;BME280;17476;48.458;7.928;2023-06-10T02:21:40;99435.59;;;18.85;64.38
30730;BME280;17476;48.458;7.928;2023-06-10T02:24:06;99438.59;;;18.76;63.51
30730;BME280;17476;48.458;7.928;2023-06-10T02:26:32;99438.44;;;18.83;63.15
30730;BME280;17476;48.458;7.928;2023-06-10T02:28:58;99434.19;;;18.94;62.12
30730;BME280;17476;48.458;7.928;2023-06-10T02:31:24;99446.66;;;19.05;61.41
30730;BME280;17476;48.458;7.928;2023-06-10T02:33:50;99451.03;;;19.11;60.92
30730;BME280;17476;48.458;7.928;2023-06-10T02:36:16;99443.16;;;19.16;60.76
30730;BME280;17476;48.458;7.928;2023-06-10T02:38:42;99457.34;;;19.22;60.19
30730;BME280;17476;48.458;7.928;2023-06-10T02:41:08;99444.22;;;19.27;60.25
30730;BME280;17476;48.458;7.928;2023-06-10T02:43:34;99449.75;;;19.25;60.28
30730;BME280;17476;48.458;7.928;2023-06-10T02:46:00;99456.91;;;19.25;60.52
30730;BME280;17476;48.458;7.928;2023-06-10T02:48:27;99458.28;;;19.27;59.97
30730;BME280;17476;48.458;7.928;2023-06-10T02:50:53;99465.06;;;19.23;60.23
30730;BME280;17476;48.458;7.928;2023-06-10T02:53:19;99469.47;;;19.18;60.05
30730;BME280;17476;48.458;7.928;2023-06-10T02:55:45;99465.78;;;19.19;59.96
30730;BME280;17476;48.458;7.928;2023-06-10T02:58:11;99470.28;;;19.18;60.01
30730;BME280;17476;48.458;7.928;2023-06-10T03:00:37;99462.22;;;19.13;60.31
30730;BME280;17476;48.458;7.928;2023-06-10T03:03:03;99459.00;;;19.11;60.09
30730;BME280;17476;48.458;7.928;2023-06-10T03:05:31;99464.50;;;19.09;60.47
30730;BME280;17476;48.458;7.928;2023-06-10T03:07:56;99463.69;;;19.09;59.96
30730;BME280;17476;48.458;7.928;2023-06-10T03:10:22;99469.09;;;19.02;60.83
30730;BME280;17476;48.458;7.928;2023-06-10T03:12:48;99474.28;;;19.09;60.77
30730;BME280;17476;48.458;7.928;2023-06-10T03:15:14;99466.91;;;18.88;62.64
30730;BME280;17476;48.458;7.928;2023-06-10T03:17:41;99467.59;;;18.83;62.31
30730;BME280;17476;48.458;7.928;2023-06-10T03:20:08;99466.50;;;18.61;65.45
30730;BME280;17476;48.458;7.928;2023-06-10T03:22:36;99471.56;;;18.50;64.01
30730;BME280;17476;48.458;7.928;2023-06-10T03:25:04;99471.31;;;18.52;63.25
30730;BME280;17476;48.458;7.928;2023-06-10T03:27:31;99471.66;;;18.55;63.21
30730;BME280;17476;48.458;7.928;2023-06-10T03:29:58;99481.81;;;18.59;64.12
30730;BME280;17476;48.458;7.928;2023-06-10T03:32:24;99480.66;;;18.54;63.57
30730;BME280;17476;48.458;7.928;2023-06-10T03:34:50;99478.00;;;18.54;65.80
30730;BME280;17476;48.458;7.928;2023-06-10T03:37:16;99478.19;;;18.30;66.75
30730;BME280;17476;48.458;7.928;2023-06-10T03:39:42;99489.13;;;18.15;66.27
30730;BME280;17476;48.458;7.928;2023-06-10T03:42:08;99488.72;;;18.18;65.43
30730;BME280;17476;48.458;7.928;2023-06-10T03:44:34;99487.97;;;18.29;64.79
30730;BME280;17476;48.458;7.928;2023-06-10T03:46:59;99486.59;;;18.38;64.31
30730;BME280;17476;48.458;7.928;2023-06-10T03:49:25;99501.94;;;18.48;63.81
30730;BME280;17476;48.458;7.928;2023-06-10T03:51:54;99495.72;;;18.54;63.94
30730;BME280;17476;48.458;7.928;2023-06-10T03:54:20;99504.63;;;18.60;63.53
30730;BME280;17476;48.458;7.928;2023-06-10T03:56:46;99502.34;;;18.63;63.61
30730;BME280;17476;48.458;7.928;2023-06-10T03:59:14;99507.63;;;18.63;63.56
30730;BME280;17476;48.458;7.928;2023-06-10T04:01:40;99511.22;;;18.69;63.48
30730;BME280;17476;48.458;7.928;2023-06-10T04:04:06;99517.69;;;18.73;63.58
30730;BME280;17476;48.458;7.928;2023-06-10T04:06:32;99518.88;;;18.77;63.51
30730;BME280;17476;48.458;7.928;2023-06-10T04:08:58;99514.94;;;18.79;63.96
30730;BME280;17476;48.458;7.928;2023-06-10T04:11:24;99518.31;;;18.87;63.69
30730;BME280;17476;48.458;7.928;2023-06-10T04:13:50;99522.13;;;18.91;63.68
30730;BME280;17476;48.458;7.928;2023-06-10T04:16:16;99515.69;;;18.98;64.45
30730;BME280;17476;48.458;7.928;2023-06-10T04:18:42;99518.75;;;18.95;64.36
30730;BME280;17476;48.458;7.928;2023-06-10T04:21:08;99515.78;;;18.92;64.73
30730;BME280;17476;48.458;7.928;2023-06-10T04:23:36;99526.00;;;18.88;64.33
30730;BME280;17476;48.458;7.928;2023-06-10T04:26:03;99517.38;;;18.93;64.51
30730;BME280;17476;48.458;7.928;2023-06-10T04:28:29;99522.22;;;18.96;64.26
30730;BME280;17476;48.458;7.928;2023-06-10T04:30:55;99521.31;;;19.02;64.43
30730;BME280;17476;48.458;7.928;2023-06-10T04:33:20;99519.38;;;18.97;64.40
30730;BME280;17476;48.458;7.928;2023-06-10T04:35:46;99526.59;;;19.02;63.76
30730;BME280;17476;48.458;7.928;2023-06-10T04:38:13;99531.81;;;19.08;63.63
30730;BME280;17476;48.458;7.928;2023-06-10T04:40:39;99524.91;;;19.19;63.70
30730;BME280;17476;48.458;7.928;2023-06-10T04:43:05;99533.19;;;19.23;63.17
30730;BME280;17476;48.458;7.928;2023-06-10T04:45:31;99527.22;;;19.27;63.58
30730;BME280;17476;48.458;7.928;2023-06-10T04:47:57;99530.78;;;19.33;63.53
30730;BME280;17476;48.458;7.928;2023-06-10T04:50:23;99528.47;;;19.36;63.44
30730;BME280;17476;48.458;7.928;2023-06-10T04:52:52;99531.81;;;19.44;64.22
30730;BME280;17476;48.458;7.928;2023-06-10T04:55:18;99535.19;;;19.39;63.73
30730;BME280;17476;48.458;7.928;2023-06-10T04:57:44;99540.38;;;19.46;63.74
30730;BME280;17476;48.458;7.928;2023-06-10T05:00:10;99546.59;;;19.51;63.72
30730;BME280;17476;48.458;7.928;2023-06-10T05:02:36;99539.53;;;19.57;65.04
30730;BME280;17476;48.458;7.928;2023-06-10T05:05:02;99540.81;;;19.54;66.31
30730;BME280;17476;48.458;7.928;2023-06-10T05:07:28;99548.06;;;19.35;66.92
30730;BME280;17476;48.458;7.928;2023-06-10T05:09:53;99549.59;;;19.31;65.63
30730;BME280;17476;48.458;7.928;2023-06-10T05:12:19;99549.56;;;19.43;65.35
30730;BME280;17476;48.458;7.928;2023-06-10T05:14:45;99543.63;;;19.59;64.65
30730;BME280;17476;48.458;7.928;2023-06-10T05:17:11;99541.97;;;19.70;64.27
30730;BME280;17476;48.458;7.928;2023-06-10T05:19:38;99537.59;;;19.76;63.69
30730;BME280;17476;48.458;7.928;2023-06-10T05:22:04;99543.13;;;19.74;63.50
30730;BME280;17476;48.458;7.928;2023-06-10T05:24:30;99546.94;;;19.78;63.51
30730;BME280;17476;48.458;7.928;2023-06-10T05:27:03;99543.13;;;19.86;63.70
30730;BME280;17476;48.458;7.928;2023-06-10T05:29:29;99542.63;;;20.01;62.71
30730;BME280;17476;48.458;7.928;2023-06-10T05:31:54;99541.69;;;20.07;62.75
30730;BME280;17476;48.458;7.928;2023-06-10T05:34:23;99542.22;;;20.21;62.32
30730;BME280;17476;48.458;7.928;2023-06-10T05:36:49;99549.19;;;20.38;61.67
30730;BME280;17476;48.458;7.928;2023-06-10T05:39:14;99551.22;;;20.60;60.88
30730;BME280;17476;48.458;7.928;2023-06-10T05:41:40;99545.88;;;20.88;60.33
30730;BME280;17476;48.458;7.928;2023-06-10T05:44:06;99551.34;;;21.15;59.43
30730;BME280;17476;48.458;7.928;2023-06-10T05:46:32;99539.63;;;21.28;59.04
30730;BME280;17476;48.458;7.928;2023-06-10T05:48:57;99547.38;;;21.51;58.58
30730;BME280;17476;48.458;7.928;2023-06-10T05:51:23;99550.44;;;21.60;57.94
30730;BME280;17476;48.458;7.928;2023-06-10T05:53:49;99552.38;;;21.87;56.93
30730;BME280;17476;48.458;7.928;2023-06-10T05:56:15;99541.28;;;22.12;56.72
30730;BME280;17476;48.458;7.928;2023-06-10T05:58:44;99550.31;;;22.32;55.90
30730;BME280;17476;48.458;7.928;2023-06-10T06:01:10;99551.81;;;22.50;54.89
30730;BME280;17476;48.458;7.928;2023-06-10T06:03:35;99549.81;;;22.63;54.54
30730;BME280;17476;48.458;7.928;2023-06-10T06:06:02;99545.47;;;22.83;53.98
30730;BME280;17476;48.458;7.928;2023-06-10T06:08:29;99547.56;;;22.27;54.42
30730;BME280;17476;48.458;7.928;2023-06-10T06:10:54;99552.78;;;22.17;55.66
30730;BME280;17476;48.458;7.928;2023-06-10T06:13:20;99548.38;;;22.28;54.29
30730;BME280;17476;48.458;7.928;2023-06-10T06:15:46;99547.38;;;22.61;54.85
30730;BME280;17476;48.458;7.928;2023-06-10T06:18:12;99547.84;;;22.53;54.26
30730;BME280;17476;48.458;7.928;2023-06-10T06:20:38;99542.06;;;22.61;54.85
30730;BME280;17476;48.458;7.928;2023-06-10T06:23:03;99540.84;;;23.01;54.16
30730;BME280;17476;48.458;7.928;2023-06-10T06:25:29;99543.19;;;23.29;53.66
30730;BME280;17476;48.458;7.928;2023-06-10T06:27:55;99546.50;;;23.47;53.67
30730;BME280;17476;48.458;7.928;2023-06-10T06:30:21;99545.66;;;23.78;52.54
30730;BME280;17476;48.458;7.928;2023-06-10T06:32:47;99544.69;;;24.10;51.72
30730;BME280;17476;48.458;7.928;2023-06-10T06:35:12;99538.94;;;24.33;51.62
30730;BME280;17476;48.458;7.928;2023-06-10T06:37:38;99540.06;;;24.68;50.64
30730;BME280;17476;48.458;7.928;2023-06-10T06:40:05;99546.47;;;25.02;50.10
30730;BME280;17476;48.458;7.928;2023-06-10T06:42:31;99543.81;;;25.18;48.73
30730;BME280;17476;48.458;7.928;2023-06-10T06:44:56;99548.34;;;25.38;49.12
30730;BME280;17476;48.458;7.928;2023-06-10T06:47:22;99545.91;;;25.62;48.92
30730;BME280;17476;48.458;7.928;2023-06-10T06:49:48;99549.06;;;25.84;47.21
30730;BME280;17476;48.458;7.928;2023-06-10T06:52:17;99548.63;;;25.41;46.93
30730;BME280;17476;48.458;7.928;2023-06-10T06:54:43;99551.25;;;25.56;48.05
30730;BME280;17476;48.458;7.928;2023-06-10T06:57:09;99548.78;;;25.85;46.66
30730;BME280;17476;48.458;7.928;2023-06-10T06:59:34;99550.16;;;25.78;46.97
30730;BME280;17476;48.458;7.928;2023-06-10T07:02:00;99556.94;;;26.20;47.45
30730;BME280;17476;48.458;7.928;2023-06-10T07:04:26;99550.25;;;26.66;46.53
30730;BME280;17476;48.458;7.928;2023-06-10T07:06:52;99552.75;;;26.92;42.84
30730;BME280;17476;48.458;7.928;2023-06-10T07:09:17;99547.38;;;26.58;43.48
30730;BME280;17476;48.458;7.928;2023-06-10T07:11:43;99561.91;;;26.47;44.27
30730;BME280;17476;48.458;7.928;2023-06-10T07:14:09;99563.88;;;26.31;46.40
30730;BME280;17476;48.458;7.928;2023-06-10T07:16:35;99551.16;;;26.57;46.55
30730;BME280;17476;48.458;7.928;2023-06-10T07:19:01;99554.31;;;26.98;44.68
30730;BME280;17476;48.458;7.928;2023-06-10T07:21:26;99552.38;;;27.38;43.72
30730;BME280;17476;48.458;7.928;2023-06-10T07:23:54;99552.41;;;27.04;43.60
30730;BME280;17476;48.458;7.928;2023-06-10T07:26:22;99551.25;;;27.15;43.51
30730;BME280;17476;48.458;7.928;2023-06-10T07:28:48;99558.50;;;27.67;43.84
30730;BME280;17476;48.458;7.928;2023-06-10T07:31:14;99552.63;;;28.13;42.82
30730;BME280;17476;48.458;7.928;2023-06-10T07:33:40;99549.31;;;28.40;42.91
30730;BME280;17476;48.458;7.928;2023-06-10T07:36:06;99549.09;;;28.93;41.59
30730;BME280;17476;48.458;7.928;2023-06-10T07:38:32;99545.78;;;29.29;40.87
30730;BME280;17476;48.458;7.928;2023-06-10T07:40:58;99542.13;;;29.66;40.43
30730;BME280;17476;48.458;7.928;2023-06-10T07:43:24;99546.63;;;30.12;39.83
30730;BME280;17476;48.458;7.928;2023-06-10T07:45:50;99546.31;;;30.13;38.07
30730;BME280;17476;48.458;7.928;2023-06-10T07:48:16;99549.91;;;30.09;37.73
30730;BME280;17476;48.458;7.928;2023-06-10T07:50:42;99541.91;;;30.17;38.45
30730;BME280;17476;48.458;7.928;2023-06-10T07:53:07;99548.38;;;30.30;37.78
30730;BME280;17476;48.458;7.928;2023-06-10T07:55:33;99547.06;;;30.64;37.15
30730;BME280;17476;48.458;7.928;2023-06-10T07:57:59;99538.59;;;31.02;37.91
30730;BME280;17476;48.458;7.928;2023-06-10T08:00:25;99538.34;;;31.43;36.10
30730;BME280;17476;48.458;7.928;2023-06-10T08:02:51;99534.34;;;31.71;35.65
30730;BME280;17476;48.458;7.928;2023-06-10T08:05:17;99543.78;;;31.83;34.90
30730;BME280;17476;48.458;7.928;2023-06-10T08:07:44;99546.22;;;32.01;35.07
30730;BME280;17476;48.458;7.928;2023-06-10T08:10:10;99541.50;;;32.42;34.88
30730;BME280;17476;48.458;7.928;2023-06-10T08:12:36;99537.84;;;32.46;33.26
30730;BME280;17476;48.458;7.928;2023-06-10T08:15:03;99540.50;;;32.12;34.48
30730;BME280;17476;48.458;7.928;2023-06-10T08:17:32;99541.81;;;31.74;34.88
30730;BME280;17476;48.458;7.928;2023-06-10T08:19:58;99539.88;;;32.15;35.00
30730;BME280;17476;48.458;7.928;2023-06-10T08:22:27;99543.41;;;32.67;35.54
30730;BME280;17476;48.458;7.928;2023-06-10T08:24:54;99529.97;;;33.05;33.00
30730;BME280;17476;48.458;7.928;2023-06-10T08:27:21;99534.88;;;33.21;33.71
30730;BME280;17476;48.458;7.928;2023-06-10T08:29:47;99523.75;;;33.60;32.88
30730;BME280;17476;48.458;7.928;2023-06-10T08:32:13;99529.25;;;34.02;33.03
30730;BME280;17476;48.458;7.928;2023-06-10T08:34:39;99532.63;;;34.41;32.06
30730;BME280;17476;48.458;7.928;2023-06-10T08:37:06;99533.81;;;34.73;30.54
30730;BME280;17476;48.458;7.928;2023-06-10T08:39:32;99539.19;;;34.40;30.56
30730;BME280;17476;48.458;7.928;2023-06-10T08:42:34;99529.03;;;32.84;32.77
30730;BME280;17476;48.458;7.928;2023-06-10T08:45:03;99530.38;;;33.33;32.50
30730;BME280;17476;48.458;7.928;2023-06-10T08:47:34;99537.75;;;34.21;32.39
30730;BME280;17476;48.458;7.928;2023-06-10T08:50:05;99531.31;;;35.01;32.08
30730;BME280;17476;48.458;7.928;2023-06-10T08:52:41;99527.31;;;35.68;30.48
30730;BME280;17476;48.458;7.928;2023-06-10T08:55:30;99530.72;;;35.77;29.81
30730;BME280;17476;48.458;7.928;2023-06-10T08:58:01;99525.22;;;36.14;29.37
30730;BME280;17476;48.458;7.928;2023-06-10T09:00:28;99519.25;;;36.36;29.43
30730;BME280;17476;48.458;7.928;2023-06-10T09:02:57;99518.78;;;36.47;27.89
30730;BME280;17476;48.458;7.928;2023-06-10T09:05:22;99515.72;;;35.96;29.15
30730;BME280;17476;48.458;7.928;2023-06-10T09:07:49;99518.56;;;35.99;29.58
30730;BME280;17476;48.458;7.928;2023-06-10T09:10:16;99513.34;;;36.34;28.43
30730;BME280;17476;48.458;7.928;2023-06-10T09:12:42;99498.78;;;36.71;27.40
30730;BME280;17476;48.458;7.928;2023-06-10T09:15:09;99502.47;;;37.06;27.34
30730;BME280;17476;48.458;7.928;2023-06-10T09:17:35;99506.16;;;37.46;27.08
30730;BME280;17476;48.458;7.928;2023-06-10T09:20:08;99503.66;;;37.88;26.15
30730;BME280;17476;48.458;7.928;2023-06-10T09:22:34;99503.34;;;38.28;26.29
30730;BME280;17476;48.458;7.928;2023-06-10T09:25:15;99508.78;;;38.47;25.49
30730;BME280;17476;48.458;7.928;2023-06-10T09:27:51;99501.94;;;38.57;24.57
30730;BME280;17476;48.458;7.928;2023-06-10T09:32:57;99493.88;;;38.64;25.36
30730;BME280;17476;48.458;7.928;2023-06-10T09:35:27;99487.44;;;38.95;24.93
30730;BME280;17476;48.458;7.928;2023-06-10T09:37:57;99479.03;;;39.30;24.51
30730;BME280;17476;48.458;7.928;2023-06-10T09:40:23;99494.19;;;39.24;23.93
30730;BME280;17476;48.458;7.928;2023-06-10T09:43:00;99485.72;;;39.33;23.95
30730;BME280;17476;48.458;7.928;2023-06-10T09:45:31;99489.50;;;39.51;24.35
30730;BME280;17476;48.458;7.928;2023-06-10T09:47:57;99494.44;;;39.95;24.63
30730;BME280;17476;48.458;7.928;2023-06-10T09:50:23;99481.94;;;40.28;23.87
30730;BME280;17476;48.458;7.928;2023-06-10T09:52:50;99487.72;;;40.19;24.17
30730;BME280;17476;48.458;7.928;2023-06-10T09:55:17;99482.09;;;40.42;24.50
30730;BME280;17476;48.458;7.928;2023-06-10T09:57:43;99485.22;;;40.44;23.51
30730;BME280;17476;48.458;7.928;2023-06-10T10:00:14;99487.00;;;40.59;22.84
30730;BME280;17476;48.458;7.928;2023-06-10T10:02:48;99476.16;;;40.74;23.62
30730;BME280;17476;48.458;7.928;2023-06-10T10:05:16;99479.81;;;40.88;22.80
30730;BME280;17476;48.458;7.928;2023-06-10T10:07:43;99475.09;;;40.85;23.52
30730;BME280;17476;48.458;7.928;2023-06-10T10:10:38;99474.81;;;40.94;23.24
30730;BME280;17476;48.458;7.928;2023-06-10T10:13:21;99478.16;;;40.77;22.18
30730;BME280;17476;48.458;7.928;2023-06-10T10:15:47;99473.75;;;40.01;23.17
30730;BME280;17476;48.458;7.928;2023-06-10T10:18:14;99472.50;;;40.59;23.50
30730;BME280;17476;48.458;7.928;2023-06-10T10:20:52;99467.97;;;41.22;23.48
30730;BME280;17476;48.458;7.928;2023-06-10T10:23:50;99466.78;;;41.78;22.84
30730;BME280;17476;48.458;7.928;2023-06-10T10:26:18;99461.47;;;41.44;21.47
30730;BME280;17476;48.458;7.928;2023-06-10T10:29:01;99462.00;;;41.09;22.90
30730;BME280;17476;48.458;7.928;2023-06-10T10:31:30;99452.78;;;41.38;23.00
30730;BME280;17476;48.458;7.928;2023-06-10T10:33:59;99458.78;;;41.55;21.88
30730;BME280;17476;48.458;7.928;2023-06-10T10:36:27;99455.38;;;41.76;21.91
30730;BME280;17476;48.458;7.928;2023-06-10T10:38:54;99458.47;;;41.70;21.76
30730;BME280;17476;48.458;7.928;2023-06-10T10:41:20;99455.53;;;39.56;21.73
30730;BME280;17476;48.458;7.928;2023-06-10T10:43:47;99461.69;;;39.76;23.77
30730;BME280;17476;48.458;7.928;2023-06-10T10:46:16;99458.00;;;40.58;23.21
30730;BME280;17476;48.458;7.928;2023-06-10T10:48:43;99446.25;;;40.58;21.60
30730;BME280;17476;48.458;7.928;2023-06-10T10:51:11;99447.41;;;40.20;22.44
30730;BME280;17476;48.458;7.928;2023-06-10T10:53:38;99449.19;;;40.05;23.58
30730;BME280;17476;48.458;7.928;2023-06-10T10:56:06;99451.56;;;40.44;23.01
30730;BME280;17476;48.458;7.928;2023-06-10T10:58:33;99444.66;;;40.98;22.85
30730;BME280;17476;48.458;7.928;2023-06-10T11:00:59;99429.19;;;41.27;21.43
30730;BME280;17476;48.458;7.928;2023-06-10T11:03:29;99433.06;;;41.22;20.95
30730;BME280;17476;48.458;7.928;2023-06-10T11:05:58;99434.78;;;41.41;21.78
30730;BME280;17476;48.458;7.928;2023-06-10T11:10:59;99427.34;;;40.90;21.62
30730;BME280;17476;48.458;7.928;2023-06-10T11:13:27;99436.25;;;40.39;22.52
30730;BME280;17476;48.458;7.928;2023-06-10T11:15:57;99435.84;;;40.03;22.94
30730;BME280;17476;48.458;7.928;2023-06-10T11:18:25;99437.06;;;39.49;23.43
30730;BME280;17476;48.458;7.928;2023-06-10T11:21:05;99427.78;;;39.04;23.06
30730;BME280;17476;48.458;7.928;2023-06-10T11:23:41;99429.69;;;38.55;23.53
30730;BME280;17476;48.458;7.928;2023-06-10T11:31:44;99432.06;;;37.28;25.24
30730;BME280;17476;48.458;7.928;2023-06-10T11:34:11;99434.88;;;37.82;25.22
30730;BME280;17476;48.458;7.928;2023-06-10T11:36:40;99435.47;;;38.53;24.20
30730;BME280;17476;48.458;7.928;2023-06-10T11:39:08;99424.78;;;39.36;23.55
30730;BME280;17476;48.458;7.928;2023-06-10T11:41:37;99415.81;;;39.99;22.52
30730;BME280;17476;48.458;7.928;2023-06-10T11:44:13;99422.59;;;40.09;22.33
30730;BME280;17476;48.458;7.928;2023-06-10T11:46:40;99420.72;;;40.17;23.03
30730;BME280;17476;48.458;7.928;2023-06-10T11:49:08;99415.03;;;40.32;22.08
30730;BME280;17476;48.458;7.928;2023-06-10T11:51:36;99412.81;;;40.08;23.28
30730;BME280;17476;48.458;7.928;2023-06-10T11:54:03;99419.38;;;39.70;23.22
30730;BME280;17476;48.458;7.928;2023-06-10T11:56:31;99412.75;;;39.44;23.82
30730;BME280;17476;48.458;7.928;2023-06-10T11:59:00;99418.44;;;39.32;23.83
30730;BME280;17476;48.458;7.928;2023-06-10T12:01:31;99415.31;;;39.07;23.08
30730;BME280;17476;48.458;7.928;2023-06-10T12:04:08;99411.53;;;38.89;23.25
30730;BME280;17476;48.458;7.928;2023-06-10T12:06:46;99405.50;;;38.57;22.43
30730;BME280;17476;48.458;7.928;2023-06-10T12:09:30;99406.00;;;38.01;23.93
30730;BME280;17476;48.458;7.928;2023-06-10T12:12:01;99410.94;;;37.76;24.90
30730;BME280;17476;48.458;7.928;2023-06-10T12:14:57;99410.72;;;38.04;24.77
30730;BME280;17476;48.458;7.928;2023-06-10T12:19:56;99409.56;;;38.24;24.39
30730;BME280;17476;48.458;7.928;2023-06-10T12:22:23;99410.66;;;38.00;23.40
30730;BME280;17476;48.458;7.928;2023-06-10T12:25:01;99398.88;;;37.96;23.27
30730;BME280;17476;48.458;7.928;2023-06-10T12:27:29;99399.38;;;38.02;25.14
30730;BME280;17476;48.458;7.928;2023-06-10T12:30:01;99401.50;;;38.73;24.13
30730;BME280;17476;48.458;7.928;2023-06-10T12:32:40;99397.06;;;39.41;23.67
30730;BME280;17476;48.458;7.928;2023-06-10T12:35:07;99395.22;;;39.49;23.22
30730;BME280;17476;48.458;7.928;2023-06-10T12:37:34;99386.31;;;39.55;21.56
30730;BME280;17476;48.458;7.928;2023-06-10T12:40:01;99392.13;;;39.50;22.13
30730;BME280;17476;48.458;7.928;2023-06-10T12:42:36;99399.41;;;39.39;23.22
30730;BME280;17476;48.458;7.928;2023-06-10T12:45:03;99388.19;;;39.21;23.38
30730;BME280;17476;48.458;7.928;2023-06-10T12:47:34;99386.97;;;38.92;23.15
30730;BME280;17476;48.458;7.928;2023-06-10T12:50:07;99389.34;;;38.71;23.08
30730;BME280;17476;48.458;7.928;2023-06-10T12:52:33;99387.53;;;38.56;22.58
30730;BME280;17476;48.458;7.928;2023-06-10T12:54:59;99382.16;;;38.40;23.17
30730;BME280;17476;48.458;7.928;2023-06-10T12:57:26;99380.19;;;38.83;23.55
30730;BME280;17476;48.458;7.928;2023-06-10T12:59:52;99376.59;;;39.05;23.27
30730;BME280;17476;48.458;7.928;2023-06-10T13:02:21;99383.59;;;39.02;22.25
30730;BME280;17476;48.458;7.928;2023-06-10T13:04:50;99382.28;;;38.93;24.03
30730;BME280;17476;48.458;7.928;2023-06-10T13:07:17;99381.09;;;39.17;23.15
30730;BME280;17476;48.458;7.928;2023-06-10T13:09:44;99377.63;;;39.20;23.11
30730;BME280;17476;48.458;7.928;2023-06-10T13:12:10;99369.97;;;39.33;23.23
30730;BME280;17476;48.458;7.928;2023-06-10T13:14:37;99369.34;;;39.73;23.34
30730;BME280;17476;48.458;7.928;2023-06-10T13:17:05;99363.91;;;40.10;22.94
30730;BME280;17476;48.458;7.928;2023-06-10T13:19:33;99361.28;;;40.21;21.41